Time;durP1;ratioP1;P1;durP2;ratioP2;P2;SDS_P1;SDS_P2;PMS_P1;PMS_P2;Temp;Humidity;BMP_temperature;BMP_pressure;BME280_temperature;BME280_humidity;BME280_pressure;Samples;Min_cycle;Max_cycle;Signal;HPM_P1;HPM_P2
2022/07/23 00:01:23;;;;;;;3.83;3.53;;;21.50;99.90;;;;;;5035529;28;20173;-74
2022/07/23 00:03:49;;;;;;;4.93;3.90;;;21.50;99.90;;;;;;4980741;28;20202;-74
2022/07/23 00:06:15;;;;;;;5.93;3.70;;;21.50;99.90;;;;;;4998278;28;20583;-74
2022/07/23 00:08:40;;;;;;;4.80;3.80;;;21.40;99.90;;;;;;4998130;28;20176;-74
2022/07/23 00:11:06;;;;;;;4.60;3.67;;;21.40;99.90;;;;;;4981939;28;20221;-74
2022/07/23 00:13:32;;;;;;;5.05;3.80;;;21.40;99.90;;;;;;5014095;28;20349;-74
2022/07/23 00:15:57;;;;;;;5.30;3.70;;;21.40;99.90;;;;;;5014032;28;20171;-74
2022/07/23 00:18:23;;;;;;;3.97;3.60;;;21.40;99.90;;;;;;4981842;28;20206;-74
2022/07/23 00:20:49;;;;;;;3.88;3.47;;;21.40;99.90;;;;;;5014114;28;20171;-74
2022/07/23 00:23:15;;;;;;;4.00;3.63;;;21.40;99.90;;;;;;4981708;28;20285;-74
2022/07/23 00:25:40;;;;;;;3.95;3.65;;;21.40;99.90;;;;;;4997590;28;20179;-74
2022/07/23 00:28:06;;;;;;;4.28;3.83;;;21.20;99.90;;;;;;5015081;28;20175;-74
2022/07/23 00:30:32;;;;;;;4.10;3.53;;;21.20;99.90;;;;;;4997655;28;20564;-74
2022/07/23 00:33:00;;;;;;;4.25;3.85;;;21.00;99.90;;;;;;5013839;28;20202;-74
2022/07/23 00:35:30;;;;;;;5.18;3.50;;;21.10;99.90;;;;;;4997913;28;20583;-74
2022/07/23 00:37:56;;;;;;;4.05;3.60;;;21.10;99.90;;;;;;4997294;28;20229;-74
2022/07/23 00:40:23;;;;;;;4.45;3.97;;;21.10;99.90;;;;;;5014148;28;20203;-74
2022/07/23 00:42:49;;;;;;;4.72;3.75;;;21.10;99.90;;;;;;5013911;28;20222;-74
2022/07/23 00:45:15;;;;;;;4.25;3.70;;;21.10;99.90;;;;;;5013627;28;20191;-74
2022/07/23 00:47:40;;;;;;;4.30;3.70;;;21.10;99.90;;;;;;4997549;28;20183;-74
2022/07/23 00:50:08;;;;;;;3.63;3.33;;;21.00;99.90;;;;;;4997353;28;20186;-74
2022/07/23 00:52:35;;;;;;;4.57;3.78;;;21.00;99.90;;;;;;4997264;28;20195;-74
2022/07/23 00:55:01;;;;;;;4.28;3.83;;;21.00;99.90;;;;;;5013401;28;20276;-74
2022/07/23 00:57:27;;;;;;;4.43;3.90;;;20.90;99.90;;;;;;5013286;28;20661;-74
2022/07/23 00:59:52;;;;;;;4.57;4.18;;;20.90;99.90;;;;;;4981195;28;20183;-74
2022/07/23 01:02:18;;;;;;;4.05;3.70;;;20.90;99.90;;;;;;4997345;28;20207;-74
2022/07/23 01:04:44;;;;;;;5.45;3.95;;;20.80;99.90;;;;;;4997268;28;20191;-74
2022/07/23 01:07:09;;;;;;;4.45;4.05;;;20.70;99.90;;;;;;5014325;28;20254;-74
2022/07/23 01:09:36;;;;;;;5.90;4.10;;;20.70;99.90;;;;;;4980702;28;20277;-74
2022/07/23 01:12:02;;;;;;;5.57;4.22;;;20.70;99.90;;;;;;4981096;28;20182;-74
2022/07/23 01:14:28;;;;;;;4.90;3.92;;;20.70;99.90;;;;;;4996754;28;20227;-74
2022/07/23 01:16:53;;;;;;;5.25;3.85;;;20.80;99.90;;;;;;4980708;28;20230;-74
2022/07/23 01:19:19;;;;;;;4.72;3.92;;;20.40;99.90;;;;;;5013390;28;20171;-74
2022/07/23 01:21:47;;;;;;;4.43;3.80;;;20.10;99.90;;;;;;4996881;28;20175;-74
2022/07/23 01:24:14;;;;;;;4.40;4.00;;;20.00;99.90;;;;;;5013193;28;20194;-74
2022/07/23 01:26:43;;;;;;;4.82;4.32;;;20.00;99.90;;;;;;5013016;28;20302;-74
2022/07/23 01:29:10;;;;;;;4.60;3.92;;;20.00;99.90;;;;;;4996574;28;20183;-74
2022/07/23 01:31:36;;;;;;;6.22;4.13;;;20.00;99.90;;;;;;4980764;28;20183;-74
2022/07/23 01:34:02;;;;;;;4.32;3.92;;;20.00;99.90;;;;;;5013026;28;20199;-74
2022/07/23 01:36:27;;;;;;;4.65;4.18;;;19.90;99.90;;;;;;5012795;28;20201;-74
2022/07/23 01:38:53;;;;;;;4.38;3.97;;;19.80;99.90;;;;;;4980248;28;20183;-74
2022/07/23 01:41:19;;;;;;;4.60;3.90;;;19.70;99.90;;;;;;4996377;28;20175;-74
2022/07/23 01:43:45;;;;;;;4.40;4.00;;;19.80;99.90;;;;;;5013779;28;20191;-74
2022/07/23 01:46:11;;;;;;;4.28;3.97;;;19.60;99.90;;;;;;4995985;28;20197;-74
2022/07/23 01:48:37;;;;;;;4.32;3.92;;;19.80;99.90;;;;;;4996150;28;20171;-74
2022/07/23 01:51:02;;;;;;;4.97;3.85;;;19.80;99.90;;;;;;4996237;28;20548;-74
2022/07/23 01:53:30;;;;;;;4.30;3.90;;;20.00;99.90;;;;;;4996296;28;20210;-74
2022/07/23 01:55:57;;;;;;;4.50;4.10;;;20.00;99.90;;;;;;5012303;28;20175;-74
2022/07/23 01:58:22;;;;;;;5.20;4.18;;;20.10;99.90;;;;;;4995876;28;20241;-74
2022/07/23 02:00:48;;;;;;;4.50;4.07;;;20.10;99.90;;;;;;4980087;28;20195;-74
2022/07/23 02:03:14;;;;;;;6.60;4.50;;;19.80;99.90;;;;;;5013680;28;20215;-74
2022/07/23 02:05:39;;;;;;;4.47;4.00;;;19.70;99.90;;;;;;4982945;28;20326;-74
2022/07/23 02:08:05;;;;;;;4.80;4.40;;;19.70;99.90;;;;;;4982966;28;20190;-74
2022/07/23 02:10:31;;;;;;;5.40;4.57;;;19.50;99.90;;;;;;5015676;28;20175;-74
2022/07/23 02:12:56;;;;;;;4.78;4.38;;;19.60;99.90;;;;;;4983122;28;20606;-74
2022/07/23 02:15:22;;;;;;;4.77;4.27;;;19.60;99.90;;;;;;4983208;28;20194;-74
2022/07/23 02:17:48;;;;;;;5.00;4.50;;;19.40;99.90;;;;;;4982282;28;20209;-74
2022/07/23 02:20:14;;;;;;;4.83;4.33;;;19.00;99.90;;;;;;4999018;28;20179;-74
2022/07/23 02:22:39;;;;;;;4.80;4.40;;;19.00;99.90;;;;;;5015391;28;20170;-74
2022/07/23 02:25:07;;;;;;;5.73;4.83;;;19.00;99.90;;;;;;5015430;28;20280;-74
2022/07/23 02:27:32;;;;;;;5.43;4.73;;;19.10;99.90;;;;;;4982945;28;20659;-74
2022/07/23 02:29:58;;;;;;;4.90;4.50;;;19.20;99.90;;;;;;5015376;28;20214;-74
2022/07/23 02:32:24;;;;;;;6.57;4.73;;;19.30;99.90;;;;;;5015057;28;20552;-74
2022/07/23 02:34:51;;;;;;;9.93;4.97;;;19.40;99.90;;;;;;4999052;28;20668;-74
2022/07/23 02:37:16;;;;;;;5.43;4.63;;;19.40;99.90;;;;;;4998839;28;20280;-74
2022/07/23 02:39:42;;;;;;;5.27;4.50;;;19.40;99.90;;;;;;4999022;28;20244;-74
2022/07/23 02:42:08;;;;;;;5.43;4.93;;;19.50;99.90;;;;;;4998798;28;20182;-74
2022/07/23 02:44:34;;;;;;;5.67;4.80;;;19.40;99.90;;;;;;4982334;28;20746;-74
2022/07/23 02:47:00;;;;;;;4.95;4.45;;;19.40;99.90;;;;;;5032509;28;20182;-74
2022/07/23 02:49:25;;;;;;;5.93;4.97;;;19.40;99.90;;;;;;4998518;28;20560;-74
2022/07/23 02:51:51;;;;;;;5.35;4.80;;;19.40;99.90;;;;;;4998921;28;20182;-74
2022/07/23 02:54:17;;;;;;;5.40;4.57;;;19.40;99.90;;;;;;4998741;28;20218;-74
2022/07/23 02:56:42;;;;;;;6.10;5.13;;;19.40;99.90;;;;;;5032227;28;20202;-74
2022/07/23 02:59:08;;;;;;;7.80;5.13;;;19.40;99.90;;;;;;4998788;28;20185;-74
2022/07/23 03:01:34;;;;;;;7.38;5.45;;;19.20;99.90;;;;;;4998608;28;20182;-74
2022/07/23 03:04:00;;;;;;;5.43;4.93;;;19.20;99.90;;;;;;4998890;28;20202;-74
2022/07/23 03:06:25;;;;;;;7.10;5.07;;;19.20;99.90;;;;;;5014750;28;20189;-74
2022/07/23 03:08:51;;;;;;;5.30;4.80;;;19.30;99.90;;;;;;4982226;28;20189;-74
2022/07/23 03:11:17;;;;;;;5.15;4.63;;;19.30;99.90;;;;;;4998707;28;20178;-74
2022/07/23 03:13:42;;;;;;;6.07;4.70;;;19.30;99.90;;;;;;5014761;28;20580;-74
2022/07/23 03:16:08;;;;;;;6.07;4.80;;;19.30;99.90;;;;;;4998186;28;20183;-74
2022/07/23 03:18:34;;;;;;;5.68;4.95;;;19.30;99.90;;;;;;5032249;28;20166;-74
2022/07/23 03:20:59;;;;;;;5.73;4.70;;;19.30;99.90;;;;;;5032328;28;20224;-74
2022/07/23 03:23:25;;;;;;;5.18;4.68;;;19.20;99.90;;;;;;4998545;28;20222;-74
2022/07/23 03:25:51;;;;;;;5.47;4.97;;;19.20;99.90;;;;;;5014612;28;20257;-74
2022/07/23 03:28:18;;;;;;;5.57;4.90;;;19.10;99.90;;;;;;4998354;28;20558;-74
2022/07/23 03:30:48;;;;;;;5.85;5.15;;;19.10;99.90;;;;;;5018523;28;20178;-74
2022/07/23 03:33:14;;;;;;;5.80;5.10;;;19.10;99.90;;;;;;5002189;28;20695;-74
2022/07/23 03:35:40;;;;;;;5.57;4.50;;;19.20;99.90;;;;;;5018637;28;20178;-74
2022/07/23 03:38:06;;;;;;;5.22;4.60;;;19.20;99.90;;;;;;5018287;28;20195;-74
2022/07/23 03:40:31;;;;;;;6.38;5.18;;;19.20;99.90;;;;;;5018456;28;20170;-74
2022/07/23 03:42:57;;;;;;;4.72;4.32;;;19.00;99.90;;;;;;5018042;28;20179;-74
2022/07/23 03:45:23;;;;;;;5.28;4.78;;;19.00;99.90;;;;;;5001643;28;20195;-74
2022/07/23 03:47:48;;;;;;;6.68;5.10;;;18.90;99.90;;;;;;5018264;28;20196;-74
2022/07/23 03:50:14;;;;;;;5.53;4.83;;;19.00;99.90;;;;;;5035781;28;20174;-74
2022/07/23 03:52:40;;;;;;;6.23;4.77;;;19.10;99.90;;;;;;4985474;28;20182;-74
2022/07/23 03:55:06;;;;;;;6.00;4.87;;;19.10;99.90;;;;;;5001704;28;20665;-74
2022/07/23 03:57:32;;;;;;;6.63;5.00;;;19.10;99.90;;;;;;4985221;28;20644;-74
2022/07/23 03:59:57;;;;;;;4.87;4.47;;;19.20;99.90;;;;;;5001554;28;20657;-74
2022/07/23 04:02:23;;;;;;;5.10;4.60;;;19.20;99.90;;;;;;4985293;28;20209;-74
2022/07/23 04:04:49;;;;;;;5.33;4.80;;;19.20;99.90;;;;;;5016456;28;20560;-74
2022/07/23 04:07:15;;;;;;;6.80;5.17;;;19.20;99.90;;;;;;4985317;28;20209;-74
2022/07/23 04:09:41;;;;;;;5.70;5.20;;;19.20;99.90;;;;;;5017624;28;20178;-74
2022/07/23 04:12:07;;;;;;;5.37;4.87;;;19.20;99.90;;;;;;4985894;28;20182;-74
2022/07/23 04:14:33;;;;;;;5.47;4.97;;;19.20;99.90;;;;;;5017647;28;20301;-74
2022/07/23 04:16:59;;;;;;;5.73;4.90;;;19.10;99.90;;;;;;5017423;28;20225;-74
2022/07/23 04:19:25;;;;;;;5.40;4.90;;;19.10;99.90;;;;;;4984915;28;20649;-74
2022/07/23 04:21:51;;;;;;;5.53;4.97;;;19.10;99.90;;;;;;5017636;28;20219;-74
2022/07/23 04:24:16;;;;;;;5.60;5.00;;;19.00;99.90;;;;;;5035088;28;20235;-74
2022/07/23 04:26:42;;;;;;;6.53;5.50;;;19.00;99.90;;;;;;4985019;28;20198;-74
2022/07/23 04:29:07;;;;;;;5.70;4.93;;;19.00;99.90;;;;;;5017420;28;20261;-74
2022/07/23 04:31:34;;;;;;;5.93;5.35;;;19.00;99.90;;;;;;5017152;28;20209;-74
2022/07/23 04:34:00;;;;;;;5.60;4.80;;;19.00;99.90;;;;;;5017526;28;20198;-74
2022/07/23 04:36:25;;;;;;;6.20;5.50;;;19.00;99.90;;;;;;5000735;28;20208;-74
2022/07/23 04:38:51;;;;;;;8.90;5.40;;;19.00;99.90;;;;;;5000752;28;20178;-74
2022/07/23 04:41:16;;;;;;;5.65;5.15;;;18.90;99.90;;;;;;4984595;28;20179;-74
2022/07/23 04:43:42;;;;;;;6.03;5.43;;;19.00;99.90;;;;;;5000791;28;20198;-74
2022/07/23 04:46:08;;;;;;;5.83;5.20;;;19.00;99.90;;;;;;5001129;28;20217;-74
2022/07/23 04:48:33;;;;;;;6.00;5.13;;;19.10;99.90;;;;;;4984615;28;20201;-74
2022/07/23 04:50:59;;;;;;;5.60;4.97;;;19.10;99.90;;;;;;4984505;28;20178;-74
2022/07/23 04:53:24;;;;;;;6.30;5.70;;;19.10;99.90;;;;;;5038855;23;20218;-75
2022/07/23 04:55:50;;;;;;;6.23;5.57;;;19.10;99.90;;;;;;5016292;28;20198;-75
2022/07/23 04:58:16;;;;;;;6.07;5.47;;;19.10;99.90;;;;;;4999729;28;20210;-76
2022/07/23 05:00:41;;;;;;;6.07;5.47;;;19.10;99.90;;;;;;5016687;28;20613;-75
2022/07/23 05:03:07;;;;;;;6.13;5.50;;;19.10;99.90;;;;;;4999880;28;20183;-75
2022/07/23 05:05:32;;;;;;;6.07;5.47;;;19.20;99.90;;;;;;4999831;28;20293;-75
2022/07/23 05:07:58;;;;;;;7.67;5.90;;;19.20;99.90;;;;;;5033792;28;20209;-75
2022/07/23 05:10:24;;;;;;;6.57;5.50;;;19.20;99.90;;;;;;4999834;28;20546;-73
2022/07/23 05:12:49;;;;;;;6.30;4.93;;;19.20;99.90;;;;;;4999561;28;20194;-74
2022/07/23 05:15:15;;;;;;;6.73;4.90;;;19.70;99.90;;;;;;4998441;28;20209;-75
2022/07/23 05:17:40;;;;;;;5.43;3.90;;;20.20;99.90;;;;;;4999205;28;20590;-75
2022/07/23 05:20:06;;;;;;;6.40;5.80;;;20.70;99.90;;;;;;4999655;28;20178;-75
2022/07/23 05:22:32;;;;;;;5.15;4.70;;;21.00;99.90;;;;;;4999586;28;20708;-75
2022/07/23 05:24:58;;;;;;;9.30;6.32;;;21.10;99.90;;;;;;5033521;28;20232;-75
2022/07/23 05:27:24;;;;;;;5.20;4.70;;;20.50;99.90;;;;;;5033165;28;20632;-75
2022/07/23 05:29:49;;;;;;;6.75;5.97;;;20.70;99.90;;;;;;4999707;28;20641;-75
2022/07/23 05:32:15;;;;;;;5.25;4.75;;;20.60;99.90;;;;;;5015811;28;20447;-75
2022/07/23 05:34:41;;;;;;;6.03;5.40;;;20.30;99.90;;;;;;4999281;28;20266;-75
2022/07/23 05:37:06;;;;;;;6.45;5.85;;;20.40;99.90;;;;;;5015450;28;20767;-76
2022/07/23 05:39:32;;;;;;;5.60;5.10;;;20.50;99.90;;;;;;5033056;28;20175;-75
2022/07/23 05:41:57;;;;;;;6.10;5.50;;;20.50;99.90;;;;;;4998993;28;20269;-75
2022/07/23 05:44:23;;;;;;;5.07;4.68;;;20.10;99.90;;;;;;4998958;28;20194;-75
2022/07/23 05:46:49;;;;;;;5.35;4.85;;;20.10;99.90;;;;;;5015434;28;20541;-75
2022/07/23 05:49:14;;;;;;;5.88;5.13;;;20.30;99.90;;;;;;4998990;28;20186;-75
2022/07/23 05:51:40;;;;;;;5.80;5.30;;;20.80;99.90;;;;;;4998299;28;20545;-75
2022/07/23 05:54:06;;;;;;;5.57;4.93;;;21.20;99.90;;;;;;4998992;28;20752;-75
2022/07/23 05:56:31;;;;;;;6.82;5.93;;;21.50;99.90;;;;;;4998337;28;20202;-75
2022/07/23 05:58:57;;;;;;;5.82;5.22;;;21.60;99.90;;;;;;4999078;28;20209;-74
2022/07/23 06:01:22;;;;;;;7.70;5.80;;;21.70;99.90;;;;;;5015383;28;20181;-75
2022/07/23 06:03:48;;;;;;;5.30;4.80;;;21.50;99.90;;;;;;5015177;28;20190;-75
2022/07/23 06:06:14;;;;;;;6.80;5.90;;;21.50;99.90;;;;;;4997217;28;20190;-75
2022/07/23 06:08:39;;;;;;;5.80;5.30;;;21.10;99.90;;;;;;4999457;28;20265;-73
2022/07/23 06:11:05;;;;;;;7.70;5.30;;;21.20;99.90;;;;;;5015497;28;20166;-74
2022/07/23 06:13:30;;;;;;;5.47;4.97;;;21.30;99.90;;;;;;4999181;28;20194;-74
2022/07/23 06:15:56;;;;;;;6.38;5.78;;;21.50;99.90;;;;;;4982911;28;20181;-75
2022/07/23 06:18:22;;;;;;;5.78;5.18;;;21.60;99.90;;;;;;4982982;28;20260;-76
2022/07/23 06:20:47;;;;;;;6.05;4.88;;;21.70;99.90;;;;;;5015527;28;20173;-75
2022/07/23 06:23:13;;;;;;;5.32;4.82;;;21.90;99.90;;;;;;4999219;28;20220;-75
2022/07/23 06:25:38;;;;;;;7.07;6.28;;;22.00;99.90;;;;;;4982684;28;20175;-76
2022/07/23 06:28:04;;;;;;;6.43;5.72;;;21.60;99.90;;;;;;4998748;28;20183;-76
2022/07/23 06:30:30;;;;;;;5.10;4.60;;;21.70;99.90;;;;;;4998710;28;20182;-76
2022/07/23 06:32:56;;;;;;;5.50;5.00;;;21.90;99.90;;;;;;4999162;28;20197;-76
2022/07/23 06:35:22;;;;;;;6.75;5.82;;;22.10;99.90;;;;;;4998577;28;20284;-76
2022/07/23 06:37:48;;;;;;;6.10;5.40;;;22.00;99.90;;;;;;4982347;28;20293;-76
2022/07/23 06:40:13;;;;;;;6.25;5.65;;;21.80;99.90;;;;;;4998911;28;20177;-75
2022/07/23 06:42:39;;;;;;;6.50;5.85;;;21.60;99.90;;;;;;5015044;28;20177;-76
2022/07/23 06:45:06;;;;;;;5.40;4.63;;;21.40;99.90;;;;;;4982754;28;20649;-76
2022/07/23 06:47:32;;;;;;;5.97;5.10;;;21.40;99.90;;;;;;4998683;28;20183;-76
2022/07/23 06:49:58;;;;;;;5.82;5.22;;;21.60;99.90;;;;;;4998638;28;20553;-76
2022/07/23 06:52:23;;;;;;;5.57;5.05;;;21.80;99.90;;;;;;5032575;28;20216;-76
2022/07/23 06:54:49;;;;;;;5.55;5.05;;;22.00;99.90;;;;;;4998565;28;20221;-76
2022/07/23 06:57:15;;;;;;;4.80;4.40;;;21.90;99.90;;;;;;4998405;28;20663;-76
2022/07/23 06:59:41;;;;;;;5.50;4.95;;;21.90;99.90;;;;;;5014821;28;20178;-76
2022/07/23 07:02:08;;;;;;;5.30;4.90;;;22.10;99.90;;;;;;4998901;28;20185;-76
2022/07/23 07:04:33;;;;;;;6.97;6.30;;;22.20;99.90;;;;;;5018718;28;20659;-76
2022/07/23 07:06:59;;;;;;;6.95;6.35;;;22.20;99.90;;;;;;5018946;28;20178;-76
2022/07/23 07:09:24;;;;;;;7.97;6.25;;;21.90;99.90;;;;;;5002718;28;20178;-76
2022/07/23 07:11:50;;;;;;;5.82;5.22;;;21.60;99.90;;;;;;5019181;28;20174;-76
2022/07/23 07:14:16;;;;;;;7.53;5.78;;;21.20;99.90;;;;;;4986339;28;20278;-76
2022/07/23 07:16:41;;;;;;;6.85;5.97;;;21.50;99.90;;;;;;5002412;28;20220;-76
2022/07/23 07:19:07;;;;;;;7.63;6.82;;;21.60;99.90;;;;;;4986030;28;20170;-76
2022/07/23 07:21:32;;;;;;;8.75;5.90;;;21.50;99.90;;;;;;5002222;28;20170;-76
2022/07/23 07:23:58;;;;;;;9.48;7.45;;;21.60;99.90;;;;;;5002432;28;20198;-75
2022/07/23 07:26:24;;;;;;;6.60;5.90;;;21.40;99.90;;;;;;4985960;28;20261;-76
2022/07/23 07:28:49;;;;;;;7.40;6.70;;;21.30;99.90;;;;;;5002093;28;20175;-76
2022/07/23 07:31:15;;;;;;;6.70;6.10;;;21.50;99.90;;;;;;5002575;28;20186;-76
2022/07/23 07:33:41;;;;;;;8.20;7.50;;;21.10;99.90;;;;;;4986029;28;20194;-76
2022/07/23 07:36:06;;;;;;;8.88;7.97;;;21.30;99.90;;;;;;4986132;28;20179;-75
2022/07/23 07:38:32;;;;;;;8.25;7.50;;;21.10;99.90;;;;;;4986079;28;20251;-76
2022/07/23 07:40:58;;;;;;;8.90;8.10;;;21.00;99.90;;;;;;4985913;28;20574;-76
2022/07/23 07:43:23;;;;;;;7.50;6.72;;;20.80;99.90;;;;;;5001912;28;20178;-75
2022/07/23 07:45:49;;;;;;;7.38;6.40;;;20.90;99.90;;;;;;5001865;28;20541;-75
2022/07/23 07:48:14;;;;;;;8.32;7.50;;;21.00;99.90;;;;;;4985544;28;20178;-75
2022/07/23 07:50:40;;;;;;;8.73;7.85;;;21.00;99.90;;;;;;4985833;28;20647;-75
2022/07/23 07:53:06;;;;;;;7.43;6.68;;;21.10;99.90;;;;;;5001724;28;20186;-75
2022/07/23 07:55:31;;;;;;;7.65;6.35;;;21.10;99.90;;;;;;5001660;28;20208;-75
2022/07/23 07:57:58;;;;;;;8.60;7.28;;;21.30;99.90;;;;;;5001739;28;20206;-75
2022/07/23 08:00:23;;;;;;;9.18;7.22;;;21.30;99.90;;;;;;5001803;28;20232;-75
2022/07/23 08:02:51;;;;;;;8.60;7.80;;;21.30;99.90;;;;;;4985679;28;20175;-75
2022/07/23 08:05:27;;;;;;;8.13;7.28;;;21.30;99.90;;;;;;5016813;28;20668;-75
2022/07/23 08:07:54;;;;;;;8.98;7.78;;;20.90;99.90;;;;;;5001085;28;20182;-75
2022/07/23 08:10:19;;;;;;;7.65;6.95;;;20.90;99.90;;;;;;5017675;28;20181;-75
2022/07/23 08:12:52;;;;;;;9.18;7.85;;;20.90;99.90;;;;;;5017632;28;20183;-75
2022/07/23 08:15:20;;;;;;;7.03;6.43;;;21.10;99.90;;;;;;5017109;28;20245;-75
2022/07/23 08:17:47;;;;;;;7.10;6.47;;;20.90;99.90;;;;;;5017727;28;20194;-75
2022/07/23 08:20:14;;;;;;;9.02;8.13;;;21.00;99.90;;;;;;5017439;28;20182;-75
2022/07/23 08:22:44;;;;;;;9.90;8.77;;;21.10;99.90;;;;;;5001260;28;20240;-75
2022/07/23 08:25:10;;;;;;;6.93;6.28;;;21.10;99.90;;;;;;5001348;28;20216;-75
2022/07/23 08:27:36;;;;;;;7.03;6.35;;;21.30;99.90;;;;;;5001172;28;20185;-75
2022/07/23 08:30:01;;;;;;;8.40;7.60;;;21.60;99.90;;;;;;5001348;28;20179;-75
2022/07/23 08:32:27;;;;;;;6.60;5.97;;;21.80;99.90;;;;;;5000801;28;20185;-75
2022/07/23 08:34:53;;;;;;;7.50;6.80;;;21.90;99.90;;;;;;4984698;28;20198;-75
2022/07/23 08:37:18;;;;;;;9.30;8.50;;;21.70;99.90;;;;;;4984470;28;20222;-75
2022/07/23 08:39:44;;;;;;;6.97;6.38;;;21.70;99.90;;;;;;4984734;28;20166;-75
2022/07/23 08:42:09;;;;;;;6.28;5.70;;;21.90;99.90;;;;;;4984887;28;20244;-75
2022/07/23 08:44:35;;;;;;;6.63;6.03;;;22.20;99.90;;;;;;4984526;28;20194;-75
2022/07/23 08:47:01;;;;;;;10.05;9.05;;;22.30;99.90;;;;;;5016851;28;20174;-75
2022/07/23 08:49:29;;;;;;;7.38;6.68;;;22.10;99.90;;;;;;5017247;28;20193;-76
2022/07/23 08:51:55;;;;;;;9.73;8.82;;;21.80;99.90;;;;;;5000604;28;20233;-75
2022/07/23 08:54:22;;;;;;;9.15;7.88;;;21.80;99.90;;;;;;5000555;28;20210;-75
2022/07/23 08:56:48;;;;;;;9.50;7.88;;;21.50;99.90;;;;;;5000286;28;20726;-76
2022/07/23 08:59:14;;;;;;;9.55;8.57;;;21.50;99.90;;;;;;5000509;28;20216;-76
2022/07/23 09:01:39;;;;;;;8.68;7.78;;;21.40;99.90;;;;;;5000775;28;20251;-76
2022/07/23 09:04:05;;;;;;;8.48;7.57;;;21.40;99.90;;;;;;5016735;28;20194;-76
2022/07/23 09:06:31;;;;;;;7.35;6.70;;;21.60;99.90;;;;;;4984110;28;20598;-76
2022/07/23 09:08:57;;;;;;;8.65;7.85;;;21.70;99.90;;;;;;5016836;28;20201;-76
2022/07/23 09:11:23;;;;;;;9.80;8.80;;;21.90;99.90;;;;;;5016560;28;20206;-76
2022/07/23 09:13:53;;;;;;;10.00;8.13;;;22.00;99.90;;;;;;5000454;28;20249;-76
2022/07/23 09:16:31;;;;;;;9.32;8.43;;;22.10;99.90;;;;;;5016117;28;20174;-76
2022/07/23 09:19:02;;;;;;;7.35;6.65;;;22.10;99.90;;;;;;5000253;28;20715;-76
2022/07/23 09:21:31;;;;;;;8.13;7.10;;;22.20;99.90;;;;;;5016623;28;20199;-76
2022/07/23 09:24:03;;;;;;;9.63;8.73;;;22.40;99.90;;;;;;5016509;28;20285;-76
2022/07/23 09:26:46;;;;;;;8.45;7.65;;;22.60;99.90;;;;;;5015518;28;20200;-76
2022/07/23 09:29:19;;;;;;;9.00;8.20;;;22.50;99.90;;;;;;5016225;28;20158;-76
2022/07/23 09:31:50;;;;;;;8.80;7.97;;;22.50;99.90;;;;;;4999936;28;20163;-76
2022/07/23 09:34:20;;;;;;;9.38;8.52;;;22.40;99.90;;;;;;5000231;28;20223;-76
2022/07/23 09:36:47;;;;;;;9.45;8.55;;;22.40;99.90;;;;;;5015770;28;20294;-76
2022/07/23 09:39:15;;;;;;;9.60;8.60;;;22.60;99.90;;;;;;5000037;28;20170;-76
2022/07/23 09:41:43;;;;;;;9.13;8.20;;;22.90;99.90;;;;;;5016306;28;20228;-76
2022/07/23 09:44:19;;;;;;;9.95;8.93;;;23.00;99.90;;;;;;5033537;28;20191;-76
2022/07/23 09:46:47;;;;;;;9.00;8.20;;;22.50;99.90;;;;;;5015839;28;20178;-76
2022/07/23 09:49:21;;;;;;;8.80;8.00;;;22.40;99.90;;;;;;4999712;28;20265;-76
2022/07/23 09:51:56;;;;;;;9.52;8.60;;;22.70;99.90;;;;;;5015883;28;20177;-76
2022/07/23 09:54:33;;;;;;;8.52;7.72;;;22.60;99.90;;;;;;4999829;28;20209;-76
2022/07/23 09:57:02;;;;;;;8.68;7.88;;;22.60;99.90;;;;;;5000257;28;20202;-76
2022/07/23 09:59:33;;;;;;;8.38;7.57;;;22.60;99.90;;;;;;4999526;28;20197;-76
2022/07/23 10:02:00;;;;;;;8.23;7.40;;;23.00;99.90;;;;;;4999391;28;20173;-76
2022/07/23 10:04:28;;;;;;;8.63;7.50;;;23.30;99.90;;;;;;5015472;28;20225;-76
2022/07/23 10:06:56;;;;;;;7.65;6.95;;;23.60;99.90;;;;;;5013905;28;20197;-76
2022/07/23 10:09:34;;;;;;;8.07;7.38;;;23.90;99.90;;;;;;4999424;28;20182;-76
2022/07/23 10:14:46;;;;;;;8.32;7.20;;;24.00;99.90;;;;;;5018637;28;20697;-76
2022/07/23 10:17:12;;;;;;;7.10;6.38;;;24.10;99.90;;;;;;4999136;28;20220;-76
2022/07/23 10:19:39;;;;;;;7.20;6.50;;;24.20;99.90;;;;;;4999098;28;20178;-76
2022/07/23 10:22:09;;;;;;;6.45;5.85;;;24.30;99.90;;;;;;5015165;28;20174;-74
2022/07/23 10:25:11;;;;;;;7.25;6.57;;;24.40;99.90;;;;;;4998950;28;20281;-75
2022/07/23 10:28:13;;;;;;;6.50;5.88;;;24.20;99.90;;;;;;5015095;28;20220;-75
2022/07/23 10:31:05;;;;;;;6.65;6.05;;;24.50;99.90;;;;;;5011927;28;20178;-75
2022/07/23 10:33:46;;;;;;;6.53;5.93;;;24.80;99.90;;;;;;5032661;28;20209;-75
2022/07/23 10:36:29;;;;;;;5.70;5.10;;;25.20;99.90;;;;;;5015275;28;20643;-74
2022/07/23 10:39:05;;;;;;;5.55;5.05;;;25.60;99.90;;;;;;5014804;28;20269;-75
2022/07/23 10:41:39;;;;;;;5.85;5.35;;;25.70;99.90;;;;;;5032840;28;20174;-75
2022/07/23 10:44:06;;;;;;;6.43;5.20;;;26.00;99.90;;;;;;5016134;28;20185;-75
2022/07/23 10:49:25;;;;;;;6.45;5.25;;;25.90;99.90;;;;;;5018102;28;20324;-74
2022/07/23 10:52:13;;;;;;;5.43;5.03;;;25.80;99.90;;;;;;5015074;28;20170;-74
2022/07/23 10:54:39;;;;;;;5.88;5.38;;;25.30;99.90;;;;;;5061040;23;20229;-75
2022/07/23 10:57:07;;;;;;;7.38;5.47;;;25.50;99.90;;;;;;5034041;28;20205;-74
2022/07/23 11:00:13;;;;;;;6.20;5.60;;;25.60;99.90;;;;;;5051982;28;20157;-74
2022/07/23 11:02:45;;;;;;;5.55;5.07;;;25.30;99.90;;;;;;5034068;28;20284;-75
2022/07/23 11:05:14;;;;;;;5.85;5.35;;;25.70;99.90;;;;;;5017710;28;20199;-75
2022/07/23 11:08:05;;;;;;;6.15;5.53;;;26.20;99.90;;;;;;5017634;28;20293;-74
2022/07/23 11:10:35;;;;;;;5.93;5.43;;;26.10;99.90;;;;;;5034120;28;20182;-74
2022/07/23 11:13:22;;;;;;;5.25;4.75;;;26.20;99.90;;;;;;5033841;28;20181;-75
2022/07/23 11:16:14;;;;;;;5.70;5.20;;;26.60;99.90;;;;;;5051725;28;20216;-75
2022/07/23 11:18:40;;;;;;;5.60;5.10;;;26.90;99.90;;;;;;5051722;28;20662;-75
2022/07/23 11:21:23;;;;;;;5.60;5.03;;;26.60;99.90;;;;;;5034085;28;20169;-75
2022/07/23 11:24:10;;;;;;;6.28;4.97;;;26.80;99.90;;;;;;5033779;28;20265;-75
2022/07/23 11:26:39;;;;;;;5.43;4.90;;;26.50;99.90;;;;;;5033983;28;20576;-71
2022/07/23 11:29:36;;;;;;;5.63;5.13;;;26.40;99.90;;;;;;5051813;28;20166;-71
2022/07/23 11:32:19;;;;;;;5.15;4.63;;;26.80;99.90;;;;;;5051639;28;20170;-71
2022/07/23 11:34:47;;;;;;;4.88;4.38;;;27.40;99.90;;;;;;5034097;28;20189;-71
2022/07/23 11:37:32;;;;;;;5.15;4.53;;;27.70;99.90;;;;;;5051377;28;20196;-71
2022/07/23 11:39:59;;;;;;;5.07;4.55;;;27.90;99.80;;;;;;5033961;28;20181;-71
2022/07/23 11:42:24;;;;;;;4.85;4.45;;;27.90;99.90;;;;;;5017229;28;20174;-71
2022/07/23 11:44:51;;;;;;;5.25;4.60;;;27.40;98.90;;;;;;5033649;28;20205;-71
2022/07/23 11:47:23;;;;;;;4.97;4.57;;;27.30;99.50;;;;;;5051280;28;20181;-71
2022/07/23 11:49:53;;;;;;;5.00;4.60;;;27.30;99.70;;;;;;5034526;28;20181;-71
2022/07/23 11:52:19;;;;;;;5.05;4.57;;;27.40;98.70;;;;;;5021159;28;20185;-71
2022/07/23 11:54:57;;;;;;;4.97;4.57;;;27.20;97.70;;;;;;5020847;28;20659;-71
2022/07/23 11:57:30;;;;;;;4.72;4.30;;;26.70;99.50;;;;;;5038043;28;20679;-71
2022/07/23 12:00:02;;;;;;;4.57;4.18;;;27.10;99.90;;;;;;5037263;28;20185;-71
2022/07/23 12:02:29;;;;;;;4.80;4.20;;;27.70;99.20;;;;;;5037274;28;20173;-71
2022/07/23 12:04:54;;;;;;;4.50;4.10;;;28.40;97.50;;;;;;5020857;28;20255;-71
2022/07/23 12:07:23;;;;;;;4.57;4.15;;;28.50;97.00;;;;;;5018902;28;20189;-71
2022/07/23 12:09:49;;;;;;;4.75;4.25;;;28.30;96.90;;;;;;5037744;28;20184;-71
2022/07/23 12:12:14;;;;;;;4.38;3.97;;;28.60;96.70;;;;;;5037715;28;20548;-71
2022/07/23 12:14:58;;;;;;;4.45;4.00;;;28.80;97.40;;;;;;5037694;28;20229;-71
2022/07/23 12:17:29;;;;;;;5.03;4.53;;;28.30;95.10;;;;;;5037183;28;20221;-71
2022/07/23 12:19:56;;;;;;;4.70;4.30;;;27.90;95.60;;;;;;5021062;28;20231;-71
2022/07/23 12:22:24;;;;;;;4.93;4.43;;;27.40;96.80;;;;;;5021090;28;20247;-71
2022/07/23 12:25:02;;;;;;;4.65;4.25;;;27.10;97.70;;;;;;5037554;28;20244;-71
2022/07/23 12:27:28;;;;;;;4.55;4.15;;;27.50;98.30;;;;;;5037313;28;20173;-71
2022/07/23 12:29:54;;;;;;;4.72;4.18;;;27.50;96.40;;;;;;5020997;28;20235;-71
2022/07/23 12:32:23;;;;;;;4.78;4.28;;;26.90;96.80;;;;;;5037402;28;20640;-71
2022/07/23 12:35:05;;;;;;;5.68;4.20;;;26.40;97.80;;;;;;5037294;28;20564;-71
2022/07/23 12:37:37;;;;;;;4.75;4.03;;;26.10;98.40;;;;;;5054561;28;20264;-71
2022/07/23 12:40:51;;;;;;;5.85;3.97;;;26.20;99.00;;;;;;5020742;28;20213;-71
2022/07/23 12:43:20;;;;;;;4.25;3.85;;;26.60;97.10;;;;;;4976849;28;20175;-71
2022/07/23 12:46:04;;;;;;;5.25;4.15;;;26.90;95.00;;;;;;4992934;28;20282;-71
2022/07/23 12:48:34;;;;;;;3.92;3.63;;;27.00;95.50;;;;;;5035014;28;20183;-71
2022/07/23 12:51:14;;;;;;;4.28;3.80;;;27.20;94.70;;;;;;5020937;28;20178;-71
2022/07/23 12:53:40;;;;;;;4.80;4.22;;;27.40;94.40;;;;;;5036495;28;20177;-71
2022/07/23 12:56:09;;;;;;;4.15;3.78;;;27.40;95.50;;;;;;5036692;28;20539;-75
2022/07/23 12:58:46;;;;;;;4.30;3.90;;;27.50;95.70;;;;;;5036509;28;20193;-75